Todd, North Carolina
Current Conditions -  °F | °C
As of 2:55 PM on Friday 24 Oct 2014 (Local Time) from KTNB Reporting Station
Clear Clear  
Wind Chill: 18°   Ceiling: Unl
Heat Index: 18°   Visibility: 10mi
Dew Point: -3°   Wind: 10mph
Humidity: 24%   Direction: 290°WNW
Pressure: 30.04"   Gusts: NA
Location:  36.31°N, 81.6°W
Report Text: KTNB 241855Z AUTO 29009KT 10SM CLR 18/M03 A3004 RMK AO2 T01801031
Loading
Personal Weather Stations






























Interactive Weather Map
Tropical Storm Tracking
New forecast layout! Learn more

10-Day Weather Forecast

Advertisements
Track Severe Weather on mobile